Tilden, Illinois
Current Conditions -  °F | °C
As of 3:35 PM on Thursday 23 Oct 2014 (Local Time) from KSAR Reporting Station
Clear Clear  
Wind Chill: 60°   Ceiling: Unl
Heat Index: 60°   Visibility: 10mi
Dew Point: 44°   Wind: 3mph
Humidity: 55%   Direction: 160°SSE
Pressure: 30.13"   Gusts: NA
Location:  38.21°N, 89.68°W
Report Text: KSAR 232035Z AUTO 16003KT 10SM CLR 16/07 A3013 RMK AO2 T01560065
Loading
Personal Weather Stations






























Interactive Weather Map
Tropical Storm Tracking
New forecast layout! Learn more

10-Day Weather Forecast

Advertisements
Track Severe Weather on mobile